首页
METAR-TAF:

METAR-TAF

机场 :

Harbor Springs Municipal Airport

Harbor Springs, 密歇根州, 美国

纬度: 45-25-32N, 经度: 084-54-48W, 海拔: 209米

当前天气观测

该预报发布于19分钟前的07:55 UTC
静风
温度 1°C
湿度 100%
气压 1015 hPa
能見度: 2.8公里
阴天层高于200英尺
小雨

METAR: KMGN 130755Z AUTO 00000KT 1 3/4SM -RA OVC002 01/01 A2996 RMK AO2 T00110010

时间: 03:14 (08:14 UTC)


TAF: 丢失

超过4000个机场的气象观测和天气预报(METAR&TAF报告)。

可查询的气象台以黄色和红色小点在地图上表示。

将鼠标移到小点上方,可查看气象台名称。

然后点击查看天气观测和预报。

如需切换地图:点击带黑十字的绿色按钮放大地图;点击带横线的绿色按钮缩小地图;或者点击绿色箭头查看邻近地区的地图。


METAR-TAF: